Terminal Aerodrome Forecast
Issued by NWS Green Bay, WI

Home | Current Version | Previous Version | Graphics & Text | Print | Product List | Glossary On
Versions: 1 2 3 4 5 6 7 8 9 10 11 12 13 14 15 16 17 18 19 20 21 22 23 24 25 26 27 28 29 30 31 32 33 34 35 36
000
FTUS43 KGRB 022148 AAA
TAFGRB
TAF AMD
KGRB 022148Z 0222/0318 17006KT P6SM VCSH SCT040 BKN080
     FM022300 02007G18KT P6SM VCSH SCT020 BKN050
     FM030100 08004KT 5SM BR SCT035 BKN070
      TEMPO 0301/0305 2SM -SHRA BR BKN035
     FM030500 VRB03KT 4SM BR VCTS SCT035CB BKN120
     FM030900 VRB03KT 3SM BR VCSH SCT009 BKN030
      TEMPO 0309/0313 1SM -TSRA BR BKN009CB
     FM031500 15005KT P6SM VCSH BKN020=

USA.gov is the U.S. government's official web portal to all federal, state and local government web resources and services.